createdAt,value
2018-06-30T00:00:19.301Z,9.10
2018-06-30T00:02:50.553Z,10.57
2018-06-30T00:05:21.407Z,9.27
2018-06-30T00:07:52.180Z,9.47
2018-06-30T00:10:28.361Z,9.17
2018-06-30T00:13:01.608Z,11.53
2018-06-30T00:15:32.634Z,9.43
2018-06-30T00:18:03.678Z,9.47
2018-06-30T00:20:35.157Z,9.30
2018-06-30T00:23:06.122Z,10.43
2018-06-30T00:25:36.939Z,15.70
2018-06-30T00:28:07.656Z,8.70
2018-06-30T00:30:38.881Z,14.77
2018-06-30T00:33:10.724Z,9.83
2018-06-30T00:35:41.363Z,8.93
2018-06-30T00:38:12.315Z,10.73
2018-06-30T00:40:43.372Z,10.67
2018-06-30T00:43:14.130Z,9.53
2018-06-30T00:45:44.395Z,8.63
2018-06-30T00:48:15.205Z,10.13
2018-06-30T00:50:45.984Z,11.67
2018-06-30T00:53:16.997Z,13.17
2018-06-30T00:55:46.948Z,11.83
2018-06-30T00:58:17.912Z,9.43
2018-06-30T01:00:48.634Z,9.23
2018-06-30T01:03:19.664Z,10.57
2018-06-30T01:05:50.267Z,10.47
2018-06-30T01:08:22.133Z,9.90
2018-06-30T01:10:53.024Z,9.43
2018-06-30T01:13:23.585Z,8.80
2018-06-30T01:15:54.512Z,9.73
2018-06-30T01:18:25.427Z,10.33
2018-06-30T01:20:57.652Z,9.67
2018-06-30T01:23:28.328Z,9.73
2018-06-30T01:25:58.786Z,11.47
2018-06-30T01:28:29.640Z,9.37
2018-06-30T01:31:00.976Z,10.03
2018-06-30T01:33:31.999Z,10.43
2018-06-30T01:36:02.166Z,10.37
2018-06-30T01:38:32.696Z,10.27
2018-06-30T01:41:03.093Z,8.30
2018-06-30T01:43:34.581Z,8.93
2018-06-30T01:46:05.494Z,8.67
2018-06-30T01:48:36.571Z,7.47
2018-06-30T01:51:07.434Z,8.00
2018-06-30T01:53:38.400Z,8.77
2018-06-30T01:56:09.067Z,9.13
2018-06-30T01:58:39.830Z,10.07
2018-06-30T02:01:10.424Z,8.70
2018-06-30T02:03:41.023Z,8.47
2018-06-30T02:06:12.003Z,8.30
2018-06-30T02:08:42.109Z,8.77
2018-06-30T02:11:12.696Z,8.87
2018-06-30T02:13:43.070Z,9.07
2018-06-30T02:16:14.287Z,7.93
2018-06-30T02:18:45.070Z,7.93
2018-06-30T02:21:15.817Z,8.33
2018-06-30T02:23:46.240Z,11.03
2018-06-30T02:26:17.166Z,7.77
2018-06-30T02:28:47.732Z,6.70
2018-06-30T02:31:19.168Z,8.37
2018-06-30T02:34:01.845Z,6.77
2018-06-30T02:36:44.375Z,7.03
2018-06-30T02:39:15.110Z,8.47
2018-06-30T02:41:45.700Z,7.20
2018-06-30T02:44:16.151Z,7.30
2018-06-30T02:46:46.900Z,9.10
2018-06-30T02:49:17.780Z,8.57
2018-06-30T02:51:48.488Z,9.37
2018-06-30T02:54:19.415Z,9.20
2018-06-30T02:56:50.164Z,7.57
2018-06-30T02:59:21.050Z,8.97
2018-06-30T03:01:51.437Z,8.73
2018-06-30T03:04:22.775Z,8.67
2018-06-30T03:06:53.431Z,9.80
2018-06-30T03:09:24.011Z,9.03
2018-06-30T03:11:54.660Z,9.03
2018-06-30T03:14:25.210Z,12.23
2018-06-30T03:16:55.965Z,11.00
2018-06-30T03:19:26.325Z,10.27
2018-06-30T03:21:56.879Z,10.63
2018-06-30T03:24:27.776Z,9.80
2018-06-30T03:26:58.107Z,10.13
2018-06-30T03:29:28.668Z,9.17
2018-06-30T03:31:59.527Z,9.63
2018-06-30T03:34:30.241Z,11.67
2018-06-30T03:37:00.631Z,10.73
2018-06-30T03:39:31.091Z,12.90
2018-06-30T03:42:01.362Z,9.60
2018-06-30T03:44:32.429Z,12.60
2018-06-30T03:47:02.810Z,8.70
2018-06-30T03:49:33.221Z,9.03
2018-06-30T03:52:03.843Z,9.43
2018-06-30T03:54:34.188Z,9.07
2018-06-30T03:57:04.797Z,10.63
2018-06-30T03:59:35.475Z,10.87
2018-06-30T04:02:06.064Z,7.80
2018-06-30T04:04:36.658Z,12.33
2018-06-30T04:07:07.436Z,8.37
2018-06-30T04:09:38.076Z,11.23
2018-06-30T04:12:08.710Z,9.10
2018-06-30T04:14:39.484Z,10.33
2018-06-30T04:17:10.040Z,12.97
2018-06-30T04:19:40.755Z,10.93
2018-06-30T04:22:11.371Z,10.40
2018-06-30T04:24:41.996Z,10.53
2018-06-30T04:27:12.635Z,11.17
2018-06-30T04:29:43.082Z,10.63
2018-06-30T04:32:14.436Z,9.73
2018-06-30T04:34:45.070Z,11.23
2018-06-30T04:37:15.863Z,12.23
2018-06-30T04:39:46.435Z,10.70
2018-06-30T04:42:16.508Z,9.97
2018-06-30T04:44:47.237Z,10.63
2018-06-30T04:47:18.882Z,9.60
2018-06-30T04:49:49.751Z,9.90
2018-06-30T04:52:21.104Z,12.97
2018-06-30T04:54:52.268Z,9.70
2018-06-30T04:57:23.219Z,12.60
2018-06-30T04:59:54.058Z,10.60
2018-06-30T05:02:24.571Z,10.53
2018-06-30T05:04:55.827Z,9.53
2018-06-30T05:07:26.386Z,8.33
2018-06-30T05:09:57.384Z,8.57
2018-06-30T05:12:27.173Z,8.07
2018-06-30T05:14:57.280Z,9.63
2018-06-30T05:17:27.666Z,6.47
2018-06-30T05:19:57.577Z,6.13
2018-06-30T05:22:27.642Z,6.37
2018-06-30T05:24:57.656Z,6.77
2018-06-30T05:27:27.647Z,5.63
2018-06-30T05:29:57.496Z,5.80
2018-06-30T05:32:27.244Z,5.83
2018-06-30T05:34:57.250Z,6.70
2018-06-30T05:37:27.142Z,5.77
2018-06-30T05:39:57.187Z,6.57
2018-06-30T05:42:27.138Z,7.53
2018-06-30T05:44:57.100Z,7.20
2018-06-30T05:47:27.054Z,5.43
2018-06-30T05:49:57.003Z,5.70
2018-06-30T05:52:26.757Z,6.73
2018-06-30T05:54:56.603Z,5.77
2018-06-30T05:57:26.533Z,5.03
2018-06-30T05:59:56.607Z,5.57
2018-06-30T06:02:26.630Z,6.77
2018-06-30T06:04:56.689Z,6.27
2018-06-30T06:07:26.673Z,7.00
2018-06-30T06:09:56.694Z,5.67
2018-06-30T06:12:26.491Z,7.27
2018-06-30T06:14:56.367Z,5.80
2018-06-30T06:17:26.318Z,8.63
2018-06-30T06:19:56.253Z,7.10
2018-06-30T06:22:26.145Z,8.80
2018-06-30T06:24:55.991Z,7.63
2018-06-30T06:27:26.200Z,12.37
2018-06-30T06:29:56.153Z,9.97
2018-06-30T06:32:26.097Z,9.43
2018-06-30T06:34:55.846Z,9.83
2018-06-30T06:37:25.865Z,9.13
2018-06-30T06:39:55.987Z,10.03
2018-06-30T06:42:25.965Z,12.30
2018-06-30T06:44:55.990Z,11.23
2018-06-30T06:47:25.978Z,12.23
2018-06-30T06:49:55.974Z,14.60
2018-06-30T06:52:25.940Z,12.13
2018-06-30T06:54:55.738Z,12.50
2018-06-30T06:57:25.778Z,11.77
2018-06-30T06:59:55.752Z,13.00
2018-06-30T07:02:25.772Z,14.03
2018-06-30T07:04:55.744Z,12.00
2018-06-30T07:07:25.816Z,13.83
2018-06-30T07:09:55.804Z,12.23
2018-06-30T07:12:25.641Z,11.10
2018-06-30T07:14:55.480Z,11.27
2018-06-30T07:17:25.278Z,11.97
2018-06-30T07:19:55.219Z,11.70
2018-06-30T07:22:25.175Z,11.83
2018-06-30T07:24:55.031Z,12.53
2018-06-30T07:27:24.957Z,12.00
2018-06-30T07:29:54.886Z,14.23
2018-06-30T07:32:24.740Z,11.80
2018-06-30T07:34:54.566Z,14.23
2018-06-30T07:37:24.541Z,11.27
2018-06-30T07:39:54.477Z,12.23
2018-06-30T07:42:24.278Z,12.97
2018-06-30T07:44:54.625Z,10.43
2018-06-30T07:47:24.563Z,9.90
2018-06-30T07:49:54.680Z,11.97
2018-06-30T07:52:24.472Z,8.47
2018-06-30T07:54:54.538Z,10.93
2018-06-30T07:57:24.542Z,9.80
2018-06-30T07:59:54.516Z,10.07
2018-06-30T08:02:24.557Z,10.83
2018-06-30T08:04:54.610Z,8.93
2018-06-30T08:07:24.616Z,10.13
2018-06-30T08:09:54.670Z,12.10
2018-06-30T08:12:24.651Z,10.80
2018-06-30T08:14:54.436Z,11.43
2018-06-30T08:17:24.460Z,11.13
2018-06-30T08:19:54.391Z,11.13
2018-06-30T08:22:24.395Z,10.30
2018-06-30T08:24:54.551Z,10.03
2018-06-30T08:27:24.967Z,9.50
2018-06-30T08:29:54.986Z,9.67
2018-06-30T08:32:24.845Z,10.10
2018-06-30T08:34:54.661Z,9.70
2018-06-30T08:37:24.588Z,9.87
2018-06-30T08:39:54.795Z,10.50
2018-06-30T08:42:24.508Z,9.97
2018-06-30T08:44:54.504Z,10.13
2018-06-30T08:47:24.475Z,9.50
2018-06-30T08:49:54.467Z,9.33
2018-06-30T08:52:24.353Z,9.47
2018-06-30T08:54:54.394Z,9.57
2018-06-30T08:57:24.416Z,11.50
2018-06-30T08:59:54.408Z,8.27
2018-06-30T09:02:24.396Z,10.63
2018-06-30T09:04:54.448Z,10.97
2018-06-30T09:07:24.425Z,11.53
2018-06-30T09:09:54.421Z,13.27
2018-06-30T09:12:24.334Z,8.83
2018-06-30T09:14:54.149Z,9.93
2018-06-30T09:17:24.143Z,10.10
2018-06-30T09:19:54.257Z,11.30
2018-06-30T09:22:24.296Z,11.70
2018-06-30T09:24:54.468Z,11.23
2018-06-30T09:27:24.551Z,11.00
2018-06-30T09:29:54.633Z,10.93
2018-06-30T09:32:24.488Z,11.10
2018-06-30T09:34:54.328Z,11.37
2018-06-30T09:37:24.268Z,11.30
2018-06-30T09:39:54.298Z,11.20
2018-06-30T09:42:24.056Z,10.63
2018-06-30T09:44:54.120Z,10.77
2018-06-30T09:47:24.084Z,8.70
2018-06-30T09:49:54.130Z,9.90
2018-06-30T09:52:23.955Z,9.33
2018-06-30T09:54:53.847Z,8.17
2018-06-30T09:57:23.798Z,8.03
2018-06-30T09:59:53.832Z,9.23
2018-06-30T10:02:24.107Z,8.47
2018-06-30T10:04:54.160Z,9.13
2018-06-30T10:07:24.019Z,7.83
2018-06-30T10:09:54.055Z,8.07
2018-06-30T10:12:23.833Z,7.70
2018-06-30T10:14:53.777Z,7.87
2018-06-30T10:17:23.913Z,6.50
2018-06-30T10:19:53.781Z,7.03
2018-06-30T10:22:23.760Z,6.93
2018-06-30T10:24:53.706Z,7.53
2018-06-30T10:27:23.665Z,6.57
2018-06-30T10:29:53.775Z,5.80
2018-06-30T10:32:23.821Z,6.17
2018-06-30T10:34:53.626Z,6.90
2018-06-30T10:37:23.629Z,7.10
2018-06-30T10:39:53.835Z,7.47
2018-06-30T10:42:23.600Z,8.17
2018-06-30T10:44:53.533Z,7.90
2018-06-30T10:47:23.567Z,9.30
2018-06-30T10:49:53.532Z,10.47
2018-06-30T10:52:23.304Z,10.23
2018-06-30T10:54:53.145Z,9.77
2018-06-30T10:57:23.021Z,10.70
2018-06-30T10:59:52.937Z,9.07
2018-06-30T11:02:22.979Z,9.73
2018-06-30T11:04:52.912Z,9.53
2018-06-30T11:07:22.832Z,6.10
2018-06-30T11:09:52.742Z,7.90
2018-06-30T11:12:22.623Z,8.13
2018-06-30T11:14:52.410Z,7.93
2018-06-30T11:17:22.358Z,10.73
2018-06-30T11:19:52.710Z,8.37
2018-06-30T11:22:22.788Z,7.33
2018-06-30T11:24:52.724Z,7.80
2018-06-30T11:27:22.957Z,6.87
2018-06-30T11:29:53.024Z,7.77
2018-06-30T11:32:23.499Z,9.37
2018-06-30T11:34:53.388Z,9.57
2018-06-30T11:37:23.488Z,8.23
2018-06-30T11:39:53.533Z,8.77
2018-06-30T11:42:23.412Z,7.37
2018-06-30T11:44:53.484Z,8.53
2018-06-30T11:47:23.476Z,8.27
2018-06-30T11:49:53.377Z,8.70
2018-06-30T11:52:23.320Z,8.70
2018-06-30T11:54:53.130Z,7.27
2018-06-30T11:57:23.142Z,7.33
2018-06-30T11:59:53.168Z,8.90
2018-06-30T12:02:23.481Z,8.83
2018-06-30T12:04:53.575Z,9.30
2018-06-30T12:07:24.297Z,9.23
2018-06-30T12:09:54.305Z,7.27
2018-06-30T12:12:24.177Z,6.03
2018-06-30T12:14:53.954Z,6.60
2018-06-30T12:17:23.951Z,7.20
2018-06-30T12:19:53.877Z,7.33
2018-06-30T12:22:24.224Z,7.33
2018-06-30T12:24:54.212Z,8.03
2018-06-30T12:27:24.213Z,7.43
2018-06-30T12:29:54.170Z,10.47
2018-06-30T12:32:24.137Z,7.63
2018-06-30T12:34:53.945Z,9.20
2018-06-30T12:37:23.996Z,7.03
2018-06-30T12:39:53.989Z,7.23
2018-06-30T12:42:23.867Z,7.57
2018-06-30T12:44:53.950Z,9.40
2018-06-30T12:47:24.041Z,7.13
2018-06-30T12:49:54.472Z,9.23
2018-06-30T12:52:24.375Z,9.53
2018-06-30T12:54:54.323Z,10.43
2018-06-30T12:57:24.381Z,8.50
2018-06-30T12:59:54.374Z,7.73
2018-06-30T13:02:24.309Z,7.67
2018-06-30T13:04:54.608Z,9.57
2018-06-30T13:07:24.717Z,7.20
2018-06-30T13:09:54.662Z,8.73
2018-06-30T13:12:24.479Z,9.17
2018-06-30T13:14:54.357Z,9.67
2018-06-30T13:17:24.284Z,8.60
2018-06-30T13:19:55.950Z,9.13
2018-06-30T13:22:26.261Z,7.53
2018-06-30T13:24:56.176Z,5.50
2018-06-30T13:27:26.136Z,8.30
2018-06-30T13:29:56.199Z,8.30
2018-06-30T13:32:26.519Z,7.93
2018-06-30T13:34:56.372Z,8.10
2018-06-30T13:37:26.320Z,9.23
2018-06-30T13:39:56.364Z,7.60
2018-06-30T13:42:26.286Z,7.83
2018-06-30T13:44:56.273Z,9.00
2018-06-30T13:47:26.291Z,7.57
2018-06-30T13:49:56.293Z,8.70
2018-06-30T13:52:26.056Z,8.40
2018-06-30T13:54:55.989Z,8.50
2018-06-30T13:57:26.039Z,7.90
2018-06-30T13:59:56.162Z,8.53
2018-06-30T14:02:26.057Z,8.23
2018-06-30T14:04:56.328Z,8.73
2018-06-30T14:07:26.399Z,8.70
2018-06-30T14:09:56.410Z,9.40
2018-06-30T14:12:26.454Z,9.27
2018-06-30T14:14:56.367Z,8.80
2018-06-30T14:17:26.608Z,9.10
2018-06-30T14:19:56.659Z,9.77
2018-06-30T14:22:26.871Z,10.47
2018-06-30T14:24:57.140Z,9.77
2018-06-30T14:27:27.132Z,9.13
2018-06-30T14:29:57.042Z,9.60
2018-06-30T14:32:26.963Z,10.30
2018-06-30T14:34:56.938Z,10.13
2018-06-30T14:37:26.829Z,10.17
2018-06-30T14:39:56.797Z,9.77
2018-06-30T14:42:26.897Z,8.17
2018-06-30T14:44:57.616Z,9.83
2018-06-30T14:47:27.416Z,10.13
2018-06-30T14:49:57.324Z,10.60
2018-06-30T14:52:27.167Z,10.07
2018-06-30T14:54:57.016Z,9.80
2018-06-30T14:57:26.879Z,9.10
2018-06-30T14:59:56.796Z,10.47
2018-06-30T15:02:26.773Z,10.37
2018-06-30T15:04:56.716Z,9.50
2018-06-30T15:07:26.623Z,10.03
2018-06-30T15:09:56.773Z,9.53
2018-06-30T15:12:26.594Z,9.67
2018-06-30T15:14:56.536Z,9.17
2018-06-30T15:17:26.567Z,10.00
2018-06-30T15:19:56.616Z,10.23
2018-06-30T15:22:26.610Z,10.13
2018-06-30T15:24:56.675Z,10.87
2018-06-30T15:27:26.648Z,10.37
2018-06-30T15:29:56.658Z,10.47
2018-06-30T15:32:26.435Z,10.10
2018-06-30T15:34:56.291Z,10.20
2018-06-30T15:37:26.235Z,9.60
2018-06-30T15:39:56.135Z,9.37
2018-06-30T15:42:26.275Z,10.27
2018-06-30T15:44:56.245Z,9.57
2018-06-30T15:47:26.140Z,9.33
2018-06-30T15:49:55.981Z,9.37
2018-06-30T15:52:25.846Z,9.33
2018-06-30T15:54:56.422Z,9.63
2018-06-30T15:57:26.365Z,10.17
2018-06-30T15:59:56.304Z,10.27
2018-06-30T16:02:26.374Z,9.43
2018-06-30T16:04:56.408Z,11.07
2018-06-30T16:07:26.506Z,9.23
2018-06-30T16:09:56.630Z,9.70
2018-06-30T16:12:26.531Z,12.10
2018-06-30T16:14:56.324Z,10.43
2018-06-30T16:17:26.479Z,10.27
2018-06-30T16:19:56.569Z,10.07
2018-06-30T16:22:26.692Z,10.30
2018-06-30T16:24:56.821Z,10.70
2018-06-30T16:27:26.761Z,10.77
2018-06-30T16:29:56.796Z,10.17
2018-06-30T16:32:26.751Z,10.30
2018-06-30T16:34:56.606Z,9.53
2018-06-30T16:37:26.648Z,10.17
2018-06-30T16:39:56.648Z,9.57
2018-06-30T16:42:26.706Z,10.67
2018-06-30T16:44:56.706Z,13.90
2018-06-30T16:47:26.862Z,10.37
2018-06-30T16:49:56.905Z,10.40
2018-06-30T16:52:26.710Z,9.70
2018-06-30T16:54:56.611Z,10.37
2018-06-30T16:57:26.669Z,10.50
2018-06-30T16:59:56.673Z,10.50
2018-06-30T17:02:26.716Z,10.00
2018-06-30T17:04:56.703Z,10.80
2018-06-30T17:07:26.774Z,10.37
2018-06-30T17:09:56.947Z,10.93
2018-06-30T17:12:26.747Z,10.37
2018-06-30T17:14:56.601Z,10.70
2018-06-30T17:17:26.698Z,10.83
2018-06-30T17:19:56.655Z,11.00
2018-06-30T17:22:26.732Z,11.43
2018-06-30T17:24:56.684Z,11.50
2018-06-30T17:27:26.773Z,11.53
2018-06-30T17:29:56.704Z,12.30
2018-06-30T17:32:26.589Z,11.97
2018-06-30T17:34:56.560Z,11.83
2018-06-30T17:37:26.730Z,11.87
2018-06-30T17:39:56.888Z,11.97
2018-06-30T17:42:26.976Z,12.27
2018-06-30T17:44:56.915Z,12.00
2018-06-30T17:47:26.857Z,12.17
2018-06-30T17:49:56.865Z,12.83
2018-06-30T17:52:26.758Z,12.20
2018-06-30T17:54:56.734Z,12.23
2018-06-30T17:57:26.766Z,12.83
2018-06-30T17:59:56.743Z,12.60
2018-06-30T18:02:26.675Z,13.37
2018-06-30T18:04:56.577Z,12.80
2018-06-30T18:07:26.534Z,14.17
2018-06-30T18:09:56.468Z,14.93
2018-06-30T18:12:26.391Z,13.80
2018-06-30T18:14:56.199Z,14.47
2018-06-30T18:17:26.155Z,14.27
2018-06-30T18:19:56.238Z,13.97
2018-06-30T18:22:26.282Z,15.43
2018-06-30T18:24:56.194Z,15.13
2018-06-30T18:27:26.193Z,14.13
2018-06-30T18:29:56.131Z,13.87
2018-06-30T18:32:25.989Z,14.17
2018-06-30T18:34:55.825Z,13.43
2018-06-30T18:37:25.834Z,14.43
2018-06-30T18:39:55.769Z,14.37
2018-06-30T18:42:31.383Z,14.77
2018-06-30T18:45:12.797Z,14.13
2018-06-30T18:47:42.860Z,13.87
2018-06-30T18:50:12.905Z,13.50
2018-06-30T18:52:42.736Z,13.93
2018-06-30T18:55:12.568Z,13.60
2018-06-30T18:57:42.449Z,13.73
2018-06-30T19:00:12.467Z,14.33
2018-06-30T19:02:42.467Z,13.83
2018-06-30T19:05:12.541Z,14.33
2018-06-30T19:07:42.570Z,14.80
2018-06-30T19:10:12.574Z,14.00
2018-06-30T19:12:42.703Z,15.37
2018-06-30T19:15:12.640Z,15.27
2018-06-30T19:17:42.634Z,15.83
2018-06-30T19:20:12.678Z,15.70
2018-06-30T19:22:42.642Z,16.50
2018-06-30T19:25:12.574Z,16.10
2018-06-30T19:27:42.459Z,16.20
2018-06-30T19:30:12.746Z,16.80
2018-06-30T19:32:42.600Z,18.90
2018-06-30T19:35:12.420Z,20.33
2018-06-30T19:37:42.456Z,19.07
2018-06-30T19:40:12.534Z,18.37
2018-06-30T19:42:42.581Z,19.20
2018-06-30T19:45:12.497Z,19.63
2018-06-30T19:47:42.703Z,20.23
2018-06-30T19:50:12.804Z,19.83
2018-06-30T19:52:42.732Z,20.03
2018-06-30T19:55:12.735Z,19.47
2018-06-30T19:57:42.804Z,20.03
2018-06-30T20:00:12.777Z,18.77
2018-06-30T20:02:42.885Z,19.57
2018-06-30T20:05:12.912Z,17.80
2018-06-30T20:07:47.898Z,18.33
2018-06-30T20:10:17.911Z,18.70
2018-06-30T20:12:47.919Z,18.90
2018-06-30T20:15:17.763Z,18.47
2018-06-30T20:17:47.796Z,18.40
2018-06-30T20:20:17.832Z,19.17
2018-06-30T20:22:47.786Z,20.83
2018-06-30T20:25:17.814Z,19.13
2018-06-30T20:27:47.881Z,19.70
2018-06-30T20:30:17.872Z,21.20
2018-06-30T20:32:47.831Z,19.83
2018-06-30T20:35:17.656Z,20.20
2018-06-30T20:37:47.533Z,21.30
2018-06-30T20:40:17.543Z,20.60
2018-06-30T20:42:47.583Z,20.53
2018-06-30T20:45:17.477Z,21.67
2018-06-30T20:47:47.620Z,21.53
2018-06-30T20:50:17.504Z,21.87
2018-06-30T20:52:47.448Z,22.00
2018-06-30T20:55:17.301Z,23.90
2018-06-30T20:57:47.245Z,21.93
2018-06-30T21:00:17.182Z,22.57
2018-06-30T21:02:47.162Z,22.47
2018-06-30T21:05:17.160Z,22.57
2018-06-30T21:07:47.160Z,22.57
2018-06-30T21:10:17.096Z,22.47
2018-06-30T21:12:46.986Z,21.77
2018-06-30T21:15:16.755Z,21.83
2018-06-30T21:17:46.803Z,22.60
2018-06-30T21:20:16.798Z,21.13
2018-06-30T21:22:46.826Z,21.57
2018-06-30T21:25:16.903Z,22.70
2018-06-30T21:27:46.929Z,22.03
2018-06-30T21:30:17.077Z,20.90
2018-06-30T21:32:46.910Z,21.20
2018-06-30T21:35:16.855Z,20.03
2018-06-30T21:37:46.855Z,19.20
2018-06-30T21:40:16.834Z,18.83
2018-06-30T21:42:46.736Z,19.77
2018-06-30T21:45:16.541Z,20.03
2018-06-30T21:47:52.318Z,18.40
2018-06-30T21:50:34.016Z,19.17
2018-06-30T21:53:07.264Z,19.63
2018-06-30T21:55:37.116Z,20.07
2018-06-30T21:58:08.212Z,19.63
2018-06-30T22:00:51.014Z,19.80
2018-06-30T22:03:24.065Z,21.77
2018-06-30T22:05:56.143Z,19.60
2018-06-30T22:08:27.230Z,20.77
2018-06-30T22:10:58.136Z,20.17
2018-06-30T22:13:29.102Z,20.20
2018-06-30T22:16:00.256Z,20.33
2018-06-30T22:18:31.122Z,20.77
2018-06-30T22:21:01.625Z,21.63
2018-06-30T22:23:32.644Z,21.17
2018-06-30T22:26:03.463Z,23.80
2018-06-30T22:28:34.337Z,21.87
2018-06-30T22:31:05.356Z,23.90
2018-06-30T22:33:36.321Z,22.77
2018-06-30T22:36:07.422Z,21.97
2018-06-30T22:38:38.324Z,22.87
2018-06-30T22:41:09.133Z,21.77
2018-06-30T22:43:39.832Z,22.30
2018-06-30T22:46:10.686Z,22.67
2018-06-30T22:48:41.587Z,22.03
2018-06-30T22:51:12.374Z,23.13
2018-06-30T22:53:43.447Z,22.33
2018-06-30T22:56:14.335Z,21.50
2018-06-30T22:58:45.385Z,22.47
2018-06-30T23:01:16.206Z,22.73
2018-06-30T23:03:46.674Z,25.70
2018-06-30T23:06:17.518Z,21.30
2018-06-30T23:08:55.268Z,20.83
2018-06-30T23:11:26.045Z,21.10
2018-06-30T23:13:57.112Z,20.93
2018-06-30T23:16:28.531Z,20.80
2018-06-30T23:18:59.243Z,21.60
2018-06-30T23:21:30.123Z,21.00
2018-06-30T23:24:00.859Z,18.70
2018-06-30T23:26:31.655Z,18.50
2018-06-30T23:29:02.813Z,17.17
2018-06-30T23:31:33.938Z,17.97
2018-06-30T23:34:04.829Z,18.23
2018-06-30T23:36:35.911Z,18.80
2018-06-30T23:39:09.290Z,17.37
2018-06-30T23:41:40.572Z,17.77
2018-06-30T23:44:11.520Z,17.23
2018-06-30T23:46:42.244Z,17.87
2018-06-30T23:49:12.616Z,17.20
2018-06-30T23:51:43.384Z,18.53
2018-06-30T23:54:13.861Z,19.90
2018-06-30T23:56:44.898Z,18.37
2018-06-30T23:59:15.750Z,19.53
